createdAt,value
2018-11-28T00:01:06.491Z,14.37
2018-11-28T00:03:36.251Z,12.00
2018-11-28T00:06:07.859Z,14.07
2018-11-28T00:08:37.064Z,13.70
2018-11-28T00:11:06.442Z,14.07
2018-11-28T00:13:35.648Z,14.33
2018-11-28T00:16:04.935Z,12.57
2018-11-28T00:18:34.987Z,14.53
2018-11-28T00:21:06.787Z,12.23
2018-11-28T00:23:37.833Z,12.03
2018-11-28T00:26:07.183Z,13.27
2018-11-28T00:28:36.381Z,11.73
2018-11-28T00:31:05.644Z,13.80
2018-11-28T00:33:34.958Z,10.83
2018-11-28T00:36:06.882Z,11.87
2018-11-28T00:38:37.263Z,12.50
2018-11-28T00:41:06.463Z,13.30
2018-11-28T00:43:35.738Z,12.80
2018-11-28T00:46:05.077Z,12.83
2018-11-28T00:48:35.423Z,13.57
2018-11-28T00:51:06.319Z,11.40
2018-11-28T00:53:35.908Z,13.50
2018-11-28T00:56:05.106Z,12.57
2018-11-28T00:58:34.424Z,12.07
2018-11-28T01:01:03.641Z,14.50
2018-11-28T01:03:32.942Z,12.00
2018-11-28T01:06:02.106Z,12.57
2018-11-28T01:08:33.250Z,12.83
2018-11-28T01:11:03.776Z,11.80
2018-11-28T01:13:33.071Z,12.20
2018-11-28T01:16:02.412Z,13.33
2018-11-28T01:18:31.671Z,12.53
2018-11-28T01:21:01.401Z,13.27
2018-11-28T01:23:33.086Z,12.30
2018-11-28T01:26:03.026Z,11.83
2018-11-28T01:28:31.196Z,12.57
2018-11-28T01:31:00.086Z,12.27
2018-11-28T01:33:28.996Z,12.00
2018-11-28T01:35:57.859Z,13.30
2018-11-28T01:38:26.758Z,13.20
2018-11-28T01:40:58.083Z,11.33
2018-11-28T01:43:28.614Z,11.43
2018-11-28T01:45:57.545Z,12.57
2018-11-28T01:48:26.453Z,11.97
2018-11-28T01:50:55.330Z,11.00
2018-11-28T01:53:27.102Z,10.93
2018-11-28T01:55:56.934Z,12.23
2018-11-28T01:58:26.249Z,11.33
2018-11-28T02:00:55.440Z,11.23
2018-11-28T02:03:24.633Z,11.43
2018-11-28T02:05:53.939Z,11.90
2018-11-28T02:08:23.539Z,11.83
2018-11-28T02:10:54.693Z,12.13
2018-11-28T02:13:24.006Z,12.27
2018-11-28T02:15:53.299Z,12.13
2018-11-28T02:18:22.590Z,13.63
2018-11-28T02:20:54.214Z,11.67
2018-11-28T02:23:23.545Z,11.70
2018-11-28T02:25:52.799Z,11.53
2018-11-28T02:28:22.152Z,12.20
2018-11-28T02:30:51.525Z,10.93
2018-11-28T02:33:22.995Z,12.43
2018-11-28T02:35:53.656Z,12.17
2018-11-28T02:38:22.803Z,11.17
2018-11-28T02:40:52.124Z,12.00
2018-11-28T02:43:21.436Z,12.60
2018-11-28T02:46:01.427Z,10.80
2018-11-28T02:48:30.778Z,13.90
2018-11-28T02:51:00.034Z,14.37
2018-11-28T02:53:29.155Z,11.13
2018-11-28T02:55:58.482Z,11.17
2018-11-28T02:58:27.401Z,12.83
2018-11-28T03:00:56.336Z,12.27
2018-11-28T03:03:25.240Z,12.63
2018-11-28T03:05:54.132Z,12.07
2018-11-28T03:08:23.165Z,13.20
2018-11-28T03:10:52.071Z,11.80
2018-11-28T03:13:20.955Z,13.00
2018-11-28T03:15:50.388Z,11.47
2018-11-28T03:18:21.824Z,12.03
2018-11-28T03:20:51.851Z,12.30
2018-11-28T03:23:20.795Z,13.10
2018-11-28T03:25:49.704Z,12.30
2018-11-28T03:28:18.603Z,13.27
2018-11-28T03:30:48.243Z,12.70
2018-11-28T03:33:19.202Z,11.47
2018-11-28T03:35:48.504Z,11.93
2018-11-28T03:38:17.408Z,13.57
2018-11-28T03:40:46.305Z,12.40
2018-11-28T03:43:17.692Z,13.07
2018-11-28T03:45:49.204Z,12.77
2018-11-28T03:48:22.571Z,12.30
2018-11-28T03:50:53.844Z,13.17
2018-11-28T03:53:24.910Z,11.63
2018-11-28T03:55:54.235Z,12.43
2018-11-28T03:58:23.286Z,12.10
2018-11-28T04:00:54.422Z,13.67
2018-11-28T04:03:24.011Z,12.33
2018-11-28T04:05:53.173Z,11.70
2018-11-28T04:08:22.470Z,12.33
2018-11-28T04:10:51.774Z,10.60
2018-11-28T04:13:21.120Z,11.97
2018-11-28T04:15:50.785Z,12.97
2018-11-28T04:18:20.050Z,13.10
2018-11-28T04:20:49.387Z,11.33
2018-11-28T04:23:18.793Z,11.17
2018-11-28T04:25:49.292Z,12.93
2018-11-28T04:28:20.248Z,11.80
2018-11-28T04:30:49.463Z,11.20
2018-11-28T04:33:18.657Z,12.63
2018-11-28T04:35:47.956Z,10.73
2018-11-28T04:38:17.263Z,11.03
2018-11-28T04:40:48.927Z,12.00
2018-11-28T04:43:20.558Z,11.27
2018-11-28T04:45:50.378Z,13.50
2018-11-28T04:48:19.589Z,12.93
2018-11-28T04:50:48.902Z,13.70
2018-11-28T04:53:18.113Z,12.63
2018-11-28T04:55:49.199Z,11.60
2018-11-28T04:58:20.909Z,13.20
2018-11-28T05:00:50.168Z,11.67
2018-11-28T05:03:19.375Z,13.20
2018-11-28T05:05:48.679Z,13.30
2018-11-28T05:08:17.959Z,11.50
2018-11-28T05:10:48.506Z,11.20
2018-11-28T05:13:19.420Z,11.80
2018-11-28T05:15:48.614Z,12.33
2018-11-28T05:18:17.851Z,12.20
2018-11-28T05:20:47.019Z,12.93
2018-11-28T05:23:16.220Z,12.67
2018-11-28T05:25:45.579Z,12.17
2018-11-28T05:28:16.233Z,13.23
2018-11-28T05:30:47.595Z,15.17
2018-11-28T05:33:16.559Z,12.67
2018-11-28T05:35:45.998Z,13.13
2018-11-28T05:38:16.826Z,12.53
2018-11-28T05:40:47.526Z,11.87
2018-11-28T05:43:18.459Z,12.00
2018-11-28T05:45:47.618Z,12.20
2018-11-28T05:48:16.801Z,15.57
2018-11-28T05:50:46.160Z,12.87
2018-11-28T05:53:15.306Z,11.47
2018-11-28T05:55:44.600Z,13.30
2018-11-28T05:58:15.344Z,12.10
2018-11-28T06:00:44.654Z,13.53
2018-11-28T06:03:14.648Z,13.07
2018-11-28T06:05:46.342Z,13.73
2018-11-28T06:08:16.928Z,14.30
2018-11-28T06:10:46.236Z,13.77
2018-11-28T06:13:15.439Z,12.33
2018-11-28T06:15:44.971Z,13.43
2018-11-28T06:18:14.139Z,13.63
2018-11-28T06:20:46.521Z,12.90
2018-11-28T06:23:15.910Z,13.87
2018-11-28T06:25:45.095Z,14.07
2018-11-28T06:28:14.402Z,15.40
2018-11-28T06:30:47.856Z,15.37
2018-11-28T06:33:17.200Z,16.70
2018-11-28T06:35:46.452Z,13.93
2018-11-28T06:38:15.708Z,13.93
2018-11-28T06:40:44.924Z,13.63
2018-11-28T06:43:14.140Z,16.47
2018-11-28T06:45:43.324Z,14.50
2018-11-28T06:48:12.408Z,14.87
2018-11-28T06:50:41.736Z,15.30
2018-11-28T06:53:11.867Z,13.00
2018-11-28T06:55:41.176Z,15.27
2018-11-28T06:58:10.519Z,15.13
2018-11-28T07:00:39.935Z,14.17
2018-11-28T07:03:09.521Z,15.77
2018-11-28T07:05:40.422Z,17.20
2018-11-28T07:08:09.671Z,17.43
2018-11-28T07:10:38.858Z,16.77
2018-11-28T07:13:08.250Z,16.50
2018-11-28T07:15:37.557Z,15.47
2018-11-28T07:18:19.593Z,13.27
2018-11-28T07:20:49.367Z,13.43
2018-11-28T07:23:18.787Z,13.00
2018-11-28T07:25:48.076Z,14.77
2018-11-28T07:28:17.288Z,15.30
2018-11-28T07:30:48.566Z,14.43
2018-11-28T07:33:18.155Z,13.27
2018-11-28T07:35:47.468Z,12.73
2018-11-28T07:38:16.725Z,15.27
2018-11-28T07:40:46.011Z,13.37
2018-11-28T07:43:16.596Z,11.97
2018-11-28T07:45:49.944Z,13.03
2018-11-28T07:48:19.240Z,15.77
2018-11-28T07:50:48.478Z,12.00
2018-11-28T07:53:17.641Z,13.67
2018-11-28T07:55:46.930Z,13.77
2018-11-28T07:58:16.275Z,12.67
2018-11-28T08:00:45.548Z,12.60
2018-11-28T08:03:15.159Z,13.53
2018-11-28T08:05:46.243Z,11.57
2018-11-28T08:08:15.698Z,11.43
2018-11-28T08:10:45.032Z,11.13
2018-11-28T08:13:14.178Z,11.13
2018-11-28T08:15:43.828Z,10.63
2018-11-28T08:18:13.118Z,10.93
2018-11-28T08:20:43.075Z,10.73
2018-11-28T08:23:12.437Z,11.70
2018-11-28T08:25:41.681Z,10.83
2018-11-28T08:28:11.023Z,12.23
2018-11-28T08:30:41.473Z,11.20
2018-11-28T08:33:10.416Z,9.30
2018-11-28T08:35:40.014Z,10.17
2018-11-28T08:38:09.088Z,8.53
2018-11-28T08:40:38.331Z,10.23
2018-11-28T08:43:09.343Z,10.23
2018-11-28T08:45:39.907Z,9.90
2018-11-28T08:48:09.238Z,10.10
2018-11-28T08:50:40.901Z,8.87
2018-11-28T08:53:12.878Z,9.20
2018-11-28T08:55:42.503Z,10.90
2018-11-28T08:58:11.824Z,10.90
2018-11-28T09:00:41.152Z,9.37
2018-11-28T09:03:10.477Z,12.53
2018-11-28T09:05:40.526Z,8.40
2018-11-28T09:08:11.207Z,9.50
2018-11-28T09:10:41.293Z,8.93
2018-11-28T09:13:10.596Z,10.03
2018-11-28T09:15:39.900Z,9.40
2018-11-28T09:18:10.909Z,9.63
2018-11-28T09:20:40.576Z,7.97
2018-11-28T09:23:09.751Z,9.67
2018-11-28T09:25:39.030Z,8.97
2018-11-28T09:28:09.283Z,8.27
2018-11-28T09:30:38.698Z,8.80
2018-11-28T09:33:08.695Z,10.30
2018-11-28T09:35:37.885Z,8.77
2018-11-28T09:38:07.220Z,8.73
2018-11-28T09:40:36.470Z,8.40
2018-11-28T09:43:05.990Z,9.40
2018-11-28T09:45:35.279Z,9.10
2018-11-28T09:48:04.525Z,9.50
2018-11-28T09:50:34.086Z,9.47
2018-11-28T09:53:05.504Z,8.13
2018-11-28T09:55:34.938Z,9.90
2018-11-28T09:58:04.234Z,8.47
2018-11-28T10:00:33.540Z,7.60
2018-11-28T10:03:06.270Z,8.80
2018-11-28T10:05:35.844Z,9.07
2018-11-28T10:08:05.130Z,8.33
2018-11-28T10:10:35.445Z,9.87
2018-11-28T10:13:04.812Z,8.77
2018-11-28T10:15:35.733Z,10.40
2018-11-28T10:18:03.485Z,9.20
2018-11-28T10:20:32.747Z,9.20
2018-11-28T10:23:02.047Z,8.60
2018-11-28T10:25:31.387Z,8.57
2018-11-28T10:28:04.953Z,9.27
2018-11-28T10:30:38.156Z,7.67
2018-11-28T10:33:13.091Z,7.67
2018-11-28T10:35:42.416Z,8.77
2018-11-28T10:38:11.780Z,9.03
2018-11-28T10:40:41.076Z,7.13
2018-11-28T10:43:10.848Z,6.97
2018-11-28T10:45:40.187Z,7.93
2018-11-28T10:48:11.239Z,7.37
2018-11-28T10:50:40.423Z,6.73
2018-11-28T10:53:09.719Z,7.63
2018-11-28T10:55:39.027Z,7.60
2018-11-28T10:58:08.927Z,7.03
2018-11-28T11:00:43.294Z,6.40
2018-11-28T11:03:17.627Z,7.00
2018-11-28T11:05:51.826Z,7.93
2018-11-28T11:08:25.361Z,7.37
2018-11-28T11:11:00.470Z,6.93
2018-11-28T11:13:35.348Z,6.63
2018-11-28T11:16:04.941Z,7.33
2018-11-28T11:18:34.058Z,8.67
2018-11-28T11:21:03.356Z,7.13
2018-11-28T11:23:32.648Z,7.37
2018-11-28T11:26:01.896Z,6.07
2018-11-28T11:28:31.109Z,7.07
2018-11-28T11:31:00.460Z,6.37
2018-11-28T11:33:29.793Z,6.83
2018-11-28T11:35:58.980Z,6.67
2018-11-28T11:38:28.308Z,6.53
2018-11-28T11:40:57.590Z,5.80
2018-11-28T11:43:26.996Z,7.17
2018-11-28T11:45:56.478Z,7.57
2018-11-28T11:48:25.672Z,7.80
2018-11-28T11:50:55.736Z,6.13
2018-11-28T11:53:24.378Z,6.23
2018-11-28T11:55:53.643Z,7.13
2018-11-28T11:58:22.970Z,7.80
2018-11-28T12:00:52.569Z,7.60
2018-11-28T12:03:21.592Z,8.00
2018-11-28T12:05:54.731Z,8.63
2018-11-28T12:08:24.371Z,7.80
2018-11-28T12:10:53.322Z,7.93
2018-11-28T12:13:22.261Z,8.53
2018-11-28T12:15:51.175Z,8.03
2018-11-28T12:18:20.134Z,7.63
2018-11-28T12:20:53.605Z,8.17
2018-11-28T12:23:22.606Z,8.13
2018-11-28T12:25:51.535Z,7.37
2018-11-28T12:28:20.487Z,7.83
2018-11-28T12:30:49.423Z,7.30
2018-11-28T12:33:18.371Z,7.67
2018-11-28T12:35:47.286Z,7.30
2018-11-28T12:38:16.204Z,6.87
2018-11-28T12:40:45.129Z,7.30
2018-11-28T12:43:14.284Z,7.53
2018-11-28T12:45:47.427Z,8.10
2018-11-28T12:48:16.412Z,8.20
2018-11-28T12:50:45.376Z,7.70
2018-11-28T12:53:14.827Z,6.43
2018-11-28T12:55:43.763Z,8.03
2018-11-28T12:58:15.734Z,7.03
2018-11-28T13:00:44.712Z,7.07
2018-11-28T13:03:14.984Z,8.53
2018-11-28T13:05:44.334Z,7.17
2018-11-28T13:08:13.622Z,6.33
2018-11-28T13:10:43.182Z,8.30
2018-11-28T13:13:12.801Z,7.40
2018-11-28T13:15:42.100Z,6.83
2018-11-28T13:18:11.774Z,7.60
2018-11-28T13:20:42.863Z,6.53
2018-11-28T13:23:13.295Z,6.43
2018-11-28T13:25:42.635Z,6.63
2018-11-28T13:28:11.911Z,6.57
2018-11-28T13:30:41.213Z,6.33
2018-11-28T13:33:10.539Z,6.53
2018-11-28T13:35:39.785Z,6.80
2018-11-28T13:38:11.061Z,6.30
2018-11-28T13:40:40.383Z,6.40
2018-11-28T13:43:09.691Z,6.33
2018-11-28T13:45:44.354Z,6.77
2018-11-28T13:48:13.855Z,7.47
2018-11-28T13:50:43.202Z,6.60
2018-11-28T13:53:15.778Z,7.60
2018-11-28T13:56:30.015Z,7.63
2018-11-28T13:58:18.134Z,6.80
2018-11-28T14:00:47.807Z,7.20
2018-11-28T14:03:17.159Z,7.17
2018-11-28T14:05:48.510Z,7.00
2018-11-28T14:08:17.769Z,7.70
2018-11-28T14:10:47.721Z,7.00
2018-11-28T14:13:19.449Z,9.83
2018-11-28T14:15:48.754Z,8.23
2018-11-28T14:18:18.984Z,7.00
2018-11-28T14:20:48.298Z,6.80
2018-11-28T14:23:17.582Z,8.33
2018-11-28T14:25:48.206Z,8.37
2018-11-28T14:28:20.601Z,8.37
2018-11-28T14:30:50.611Z,9.83
2018-11-28T14:33:21.208Z,8.17
2018-11-28T14:35:52.764Z,7.87
2018-11-28T14:38:21.980Z,8.13
2018-11-28T14:40:51.311Z,8.40
2018-11-28T14:43:21.416Z,8.33
2018-11-28T14:45:53.753Z,8.43
2018-11-28T14:48:23.234Z,7.70
2018-11-28T14:50:52.518Z,9.03
2018-11-28T14:53:21.923Z,9.03
2018-11-28T14:55:51.230Z,9.73
2018-11-28T14:58:20.720Z,9.13
2018-11-28T15:00:50.036Z,9.23
2018-11-28T15:03:22.212Z,9.60
2018-11-28T15:06:03.892Z,9.47
2018-11-28T15:08:33.742Z,9.50
2018-11-28T15:11:11.592Z,10.13
2018-11-28T15:13:43.349Z,10.43
2018-11-28T15:16:12.694Z,9.93
2018-11-28T15:18:41.990Z,8.90
2018-11-28T15:21:13.627Z,9.53
2018-11-28T15:23:44.132Z,10.53
2018-11-28T15:26:13.418Z,10.07
2018-11-28T15:28:42.838Z,10.53
2018-11-28T15:31:12.170Z,10.83
2018-11-28T15:33:45.080Z,10.23
2018-11-28T15:36:15.153Z,10.00
2018-11-28T15:38:44.398Z,9.83
2018-11-28T15:41:13.736Z,9.73
2018-11-28T15:43:43.018Z,10.53
2018-11-28T15:46:15.886Z,8.87
2018-11-28T15:48:45.622Z,10.57
2018-11-28T15:51:14.901Z,10.40
2018-11-28T15:53:44.207Z,12.03
2018-11-28T15:56:13.607Z,11.07
2018-11-28T15:58:42.824Z,10.43
2018-11-28T16:01:12.117Z,10.07
2018-11-28T16:03:41.406Z,12.67
2018-11-28T16:06:10.701Z,11.03
2018-11-28T16:08:41.585Z,10.87
2018-11-28T16:11:19.663Z,10.20
2018-11-28T16:13:51.236Z,9.50
2018-11-28T16:16:20.503Z,10.27
2018-11-28T16:18:49.785Z,10.13
2018-11-28T16:21:18.711Z,10.23
2018-11-28T16:23:50.202Z,9.83
2018-11-28T16:26:19.486Z,9.00
2018-11-28T16:28:48.754Z,10.13
2018-11-28T16:31:18.088Z,9.93
2018-11-28T16:33:47.274Z,10.70
2018-11-28T16:36:16.540Z,12.00
2018-11-28T16:38:46.553Z,9.70
2018-11-28T16:41:16.403Z,11.00
2018-11-28T16:43:45.716Z,10.47
2018-11-28T16:46:14.857Z,12.97
2018-11-28T16:48:44.792Z,11.37
2018-11-28T16:51:17.026Z,9.43
2018-11-28T16:53:48.106Z,12.27
2018-11-28T16:56:17.434Z,12.03
2018-11-28T16:58:46.708Z,12.47
2018-11-28T17:01:15.998Z,10.87
2018-11-28T17:03:45.338Z,12.03
2018-11-28T17:06:17.065Z,13.60
2018-11-28T17:08:46.770Z,12.57
2018-11-28T17:11:16.079Z,12.33
2018-11-28T17:13:45.362Z,12.30
2018-11-28T17:16:14.570Z,10.03
2018-11-28T17:18:43.895Z,10.77
2018-11-28T17:21:13.584Z,10.73
2018-11-28T17:23:42.966Z,11.53
2018-11-28T17:26:12.271Z,13.53
2018-11-28T17:28:41.578Z,12.30
2018-11-28T17:31:10.948Z,11.47
2018-11-28T17:33:40.716Z,10.70
2018-11-28T17:36:13.098Z,10.60
2018-11-28T17:38:42.485Z,12.40
2018-11-28T17:41:14.955Z,10.93
2018-11-28T17:43:44.304Z,11.73
2018-11-28T17:46:13.681Z,10.57
2018-11-28T17:48:43.063Z,11.23
2018-11-28T17:51:12.381Z,11.60
2018-11-28T17:53:41.643Z,12.00
2018-11-28T17:56:11.534Z,12.27
2018-11-28T17:58:40.862Z,11.50
2018-11-28T18:01:12.195Z,11.70
2018-11-28T18:03:42.019Z,11.87
2018-11-28T18:06:11.331Z,11.90
2018-11-28T18:08:40.611Z,12.07
2018-11-28T18:11:12.232Z,11.70
2018-11-28T18:13:43.091Z,10.90
2018-11-28T18:16:12.540Z,9.77
2018-11-28T18:18:41.806Z,11.00
2018-11-28T18:21:11.891Z,9.30
2018-11-28T18:23:41.281Z,8.43
2018-11-28T18:26:12.285Z,10.83
2018-11-28T18:28:43.746Z,9.50
2018-11-28T18:31:13.740Z,10.13
2018-11-28T18:33:43.176Z,11.10
2018-11-28T18:36:12.482Z,11.87
2018-11-28T18:38:41.672Z,11.37
2018-11-28T18:41:10.836Z,9.30
2018-11-28T18:43:40.149Z,9.90
2018-11-28T18:46:09.463Z,11.00
2018-11-28T18:48:38.777Z,9.73
2018-11-28T18:51:09.800Z,10.57
2018-11-28T18:53:40.389Z,10.80
2018-11-28T18:56:09.607Z,10.93
2018-11-28T18:58:38.961Z,11.93
2018-11-28T19:01:08.246Z,10.10
2018-11-28T19:03:37.524Z,12.07
2018-11-28T19:06:06.852Z,8.43
2018-11-28T19:08:36.202Z,9.63
2018-11-28T19:11:05.518Z,10.07
2018-11-28T19:13:34.862Z,10.90
2018-11-28T19:16:04.375Z,10.27
2018-11-28T19:18:33.640Z,10.67
2018-11-28T19:21:04.526Z,10.50
2018-11-28T19:23:33.901Z,11.13
2018-11-28T19:26:02.990Z,11.47
2018-11-28T19:28:33.041Z,12.17
2018-11-28T19:31:03.462Z,11.17
2018-11-28T19:33:32.933Z,11.10
2018-11-28T19:36:02.323Z,13.13
2018-11-28T19:38:32.755Z,10.77
2018-11-28T19:41:05.835Z,11.03
2018-11-28T19:43:34.968Z,12.27
2018-11-28T19:46:06.185Z,13.17
2018-11-28T19:48:35.531Z,10.77
2018-11-28T19:51:04.857Z,12.67
2018-11-28T19:53:34.170Z,12.90
2018-11-28T19:56:04.689Z,10.77
2018-11-28T19:58:34.096Z,12.03
2018-11-28T20:01:03.340Z,10.83
2018-11-28T20:03:34.149Z,11.27
2018-11-28T20:06:03.492Z,12.33
2018-11-28T20:08:32.878Z,10.40
2018-11-28T20:11:02.575Z,12.13
2018-11-28T20:13:31.988Z,12.97
2018-11-28T20:16:01.864Z,12.57
2018-11-28T20:18:32.153Z,12.63
2018-11-28T20:21:01.580Z,11.73
2018-11-28T20:23:30.818Z,11.77
2018-11-28T20:26:00.615Z,13.53
2018-11-28T20:28:29.923Z,10.90
2018-11-28T20:30:59.371Z,11.30
2018-11-28T20:33:30.602Z,12.90
2018-11-28T20:36:00.067Z,13.13
2018-11-28T20:38:31.450Z,11.30
2018-11-28T20:41:00.706Z,12.37
2018-11-28T20:43:31.788Z,11.90
2018-11-28T20:46:01.651Z,13.47
2018-11-28T20:48:31.003Z,13.60
2018-11-28T20:51:01.316Z,13.70
2018-11-28T20:53:31.967Z,12.93
2018-11-28T20:56:01.256Z,12.30
2018-11-28T20:58:30.803Z,13.43
2018-11-28T21:01:00.056Z,14.77
2018-11-28T21:03:31.639Z,12.37
2018-11-28T21:06:03.416Z,12.83
2018-11-28T21:08:32.618Z,14.33
2018-11-28T21:11:01.878Z,15.87
2018-11-28T21:13:31.224Z,14.10
2018-11-28T21:16:00.506Z,14.70
2018-11-28T21:18:29.747Z,12.43
2018-11-28T21:20:59.031Z,11.97
2018-11-28T21:23:28.350Z,12.23
2018-11-28T21:25:57.679Z,11.97
2018-11-28T21:28:26.962Z,12.70
2018-11-28T21:30:57.071Z,12.07
2018-11-28T21:33:26.445Z,12.23
2018-11-28T21:35:55.640Z,12.77
2018-11-28T21:38:25.710Z,11.80
2018-11-28T21:40:55.299Z,11.40
2018-11-28T21:43:24.563Z,10.23
2018-11-28T21:45:54.049Z,14.10
2018-11-28T21:48:25.523Z,11.60
2018-11-28T21:50:54.840Z,11.40
2018-11-28T21:53:23.992Z,12.77
2018-11-28T21:55:53.369Z,11.93
2018-11-28T21:58:23.371Z,13.27
2018-11-28T22:00:52.991Z,10.50
2018-11-28T22:03:22.145Z,12.30
2018-11-28T22:05:51.598Z,11.37
2018-11-28T22:08:23.649Z,10.50
2018-11-28T22:10:52.816Z,10.00
2018-11-28T22:13:22.007Z,10.50
2018-11-28T22:15:51.218Z,11.00
2018-11-28T22:18:20.486Z,12.93
2018-11-28T22:20:50.312Z,11.83
2018-11-28T22:23:21.852Z,11.60
2018-11-28T22:25:52.871Z,11.70
2018-11-28T22:28:22.143Z,12.90
2018-11-28T22:30:51.443Z,11.47
2018-11-28T22:33:21.242Z,12.27
2018-11-28T22:35:50.577Z,9.43
2018-11-28T22:38:20.286Z,11.27
2018-11-28T22:40:51.097Z,10.10
2018-11-28T22:43:20.455Z,10.77
2018-11-28T22:45:51.310Z,11.40
2018-11-28T22:48:20.637Z,11.53
2018-11-28T22:50:49.923Z,17.23
2018-11-28T22:53:19.239Z,12.03
2018-11-28T22:55:48.626Z,11.67
2018-11-28T22:58:17.806Z,13.83
2018-11-28T23:00:52.207Z,11.73
2018-11-28T23:03:22.677Z,13.00
2018-11-28T23:05:55.447Z,19.83
2018-11-28T23:08:24.874Z,16.80
2018-11-28T23:10:54.238Z,10.77
2018-11-28T23:18:18.872Z,13.83
2018-11-28T23:20:48.192Z,11.13
2018-11-28T23:23:18.161Z,16.80
2018-11-28T23:25:47.468Z,15.70
2018-11-28T23:28:17.478Z,20.73
2018-11-28T23:30:46.692Z,12.13
2018-11-28T23:33:16.295Z,16.77
2018-11-28T23:35:45.460Z,19.00
2018-11-28T23:38:15.102Z,13.40
2018-11-28T23:40:44.552Z,22.10
2018-11-28T23:43:13.811Z,15.10
2018-11-28T23:45:43.295Z,11.77
2018-11-28T23:48:13.535Z,10.33
2018-11-28T23:50:42.727Z,10.73
2018-11-28T23:53:12.343Z,10.20
2018-11-28T23:55:41.519Z,10.13
2018-11-28T23:58:10.776Z,8.53
